<?xml version="1.0" encoding="UTF-8" standalone="no" ?>
<gpx xmlns="http://www.topografix.com/GPX/1/1" xmlns:xsi="http://www.w3.org/2001/XMLSchema-instance" xsi:schemaLocation="http://www.topografix.com/GPX/1/1 http://www.topografix.com/GPX/1/1/gpx.xsd" version="1.1" creator="VisuGPX - https://www.visugpx.com">
  <metadata>
    <name>32: Mas Neuf - gr71 - Roqueredonde</name>
    <desc><![CDATA[32: Mas Neuf - gr71 - Roqueredonde]]></desc>
  </metadata>
  <wpt lat="43.83631" lon="3.12279">
    <ele>520</ele>
    <name><![CDATA[Accueil PdC Centre]]></name>
  </wpt>
  <wpt lat="43.83565" lon="3.12242">
    <ele>530.1</ele>
    <name><![CDATA[PCB]]></name>
  </wpt>
  <wpt lat="43.82985" lon="3.129">
    <ele>500</ele>
    <name><![CDATA[MSR]]></name>
  </wpt>
  <wpt lat="43.82517" lon="3.13706">
    <ele>480.1</ele>
    <name><![CDATA[EAG]]></name>
  </wpt>
  <wpt lat="43.82249" lon="3.14372">
    <ele>480</ele>
    <name><![CDATA[ABG]]></name>
  </wpt>
  <wpt lat="43.82217" lon="3.14236">
    <ele>485.1</ele>
    <name><![CDATA[ABS]]></name>
  </wpt>
  <wpt lat="43.81383" lon="3.15076">
    <ele>460.1</ele>
    <name><![CDATA[EPC]]></name>
  </wpt>
  <wpt lat="43.81215" lon="3.15479">
    <ele>460.1</ele>
    <name><![CDATA[LMN]]></name>
  </wpt>
  <wpt lat="43.8154" lon="3.15315">
    <ele>460.1</ele>
    <name><![CDATA[PNT]]></name>
  </wpt>
  <wpt lat="43.81722" lon="3.15755">
    <ele>475</ele>
    <name><![CDATA[RQA]]></name>
  </wpt>
  <wpt lat="43.81489" lon="3.16653">
    <ele>480.1</ele>
    <name><![CDATA[RQB]]></name>
  </wpt>
  <wpt lat="43.81235" lon="3.16585">
    <ele>589.9</ele>
    <name><![CDATA[RQC]]></name>
  </wpt>
  <wpt lat="43.8121" lon="3.16661">
    <ele>594.9</ele>
    <name><![CDATA[RQD]]></name>
  </wpt>
  <wpt lat="43.80935" lon="3.17292">
    <ele>694.9</ele>
    <name><![CDATA[RQE]]></name>
  </wpt>
  <wpt lat="43.80765" lon="3.17765">
    <ele>694.9</ele>
    <name><![CDATA[RQF]]></name>
  </wpt>
  <wpt lat="43.80707" lon="3.19563">
    <ele>710.1</ele>
    <name><![CDATA[RQG]]></name>
  </wpt>
  <wpt lat="43.80217" lon="3.2121">
    <ele>665.1</ele>
    <name><![CDATA[RQH]]></name>
  </wpt>
  <wpt lat="43.80151" lon="3.21281">
    <ele>675</ele>
    <name><![CDATA[RQI]]></name>
  </wpt>
  <wpt lat="43.80076" lon="3.2122">
    <ele>680</ele>
    <name><![CDATA[RQJ]]></name>
  </wpt>
  <wpt lat="43.8001" lon="3.21298">
    <ele>680</ele>
    <name><![CDATA[RQK]]></name>
  </wpt>
  <trk>
    <name><![CDATA[RoTr 32 PdC]]></name>
    <trkseg>
      <trkpt lat="43.83564" lon="3.12243">
        <ele>530</ele>
        <time>2010-01-01T00:00:00Z</time>
      </trkpt>
      <trkpt lat="43.83563" lon="3.1225">
        <ele>530</ele>
        <time>2010-01-01T00:00:07Z</time>
      </trkpt>
      <trkpt lat="43.83566" lon="3.12265">
        <ele>529</ele>
        <time>2010-01-01T00:00:25Z</time>
      </trkpt>
      <trkpt lat="43.83565" lon="3.12282">
        <ele>528</ele>
        <time>2010-01-01T00:00:44Z</time>
      </trkpt>
      <trkpt lat="43.83518" lon="3.12355">
        <ele>538</ele>
        <time>2010-01-01T00:02:34Z</time>
      </trkpt>
      <trkpt lat="43.83501" lon="3.12398">
        <ele>532</ele>
        <time>2010-01-01T00:03:30Z</time>
      </trkpt>
      <trkpt lat="43.83469" lon="3.12454">
        <ele>533</ele>
        <time>2010-01-01T00:04:50Z</time>
      </trkpt>
      <trkpt lat="43.83443" lon="3.12491">
        <ele>533</ele>
        <time>2010-01-01T00:05:49Z</time>
      </trkpt>
      <trkpt lat="43.8338" lon="3.12587">
        <ele>534</ele>
        <time>2010-01-01T00:08:16Z</time>
      </trkpt>
      <trkpt lat="43.83287" lon="3.12721">
        <ele>530</ele>
        <time>2010-01-01T00:11:45Z</time>
      </trkpt>
      <trkpt lat="43.83256" lon="3.12757">
        <ele>526</ele>
        <time>2010-01-01T00:12:48Z</time>
      </trkpt>
      <trkpt lat="43.83228" lon="3.12782">
        <ele>529</ele>
        <time>2010-01-01T00:13:40Z</time>
      </trkpt>
      <trkpt lat="43.83194" lon="3.12825">
        <ele>525</ele>
        <time>2010-01-01T00:14:53Z</time>
      </trkpt>
      <trkpt lat="43.83153" lon="3.12861">
        <ele>522</ele>
        <time>2010-01-01T00:16:08Z</time>
      </trkpt>
      <trkpt lat="43.83086" lon="3.12907">
        <ele>510</ele>
        <time>2010-01-01T00:18:05Z</time>
      </trkpt>
      <trkpt lat="43.83069" lon="3.12915">
        <ele>506</ele>
        <time>2010-01-01T00:18:34Z</time>
      </trkpt>
      <trkpt lat="43.82996" lon="3.12907">
        <ele>506</ele>
        <time>2010-01-01T00:20:27Z</time>
      </trkpt>
      <trkpt lat="43.82986" lon="3.12901">
        <ele>510</ele>
        <time>2010-01-01T00:20:45Z</time>
      </trkpt>
      <trkpt lat="43.82982" lon="3.12902">
        <ele>511</ele>
        <time>2010-01-01T00:20:50Z</time>
      </trkpt>
      <trkpt lat="43.82957" lon="3.12922">
        <ele>515</ele>
        <time>2010-01-01T00:21:36Z</time>
      </trkpt>
      <trkpt lat="43.82896" lon="3.12994">
        <ele>517</ele>
        <time>2010-01-01T00:23:41Z</time>
      </trkpt>
      <trkpt lat="43.82881" lon="3.13021">
        <ele>517</ele>
        <time>2010-01-01T00:24:20Z</time>
      </trkpt>
      <trkpt lat="43.82866" lon="3.13059">
        <ele>512</ele>
        <time>2010-01-01T00:25:08Z</time>
      </trkpt>
      <trkpt lat="43.82842" lon="3.13089">
        <ele>508</ele>
        <time>2010-01-01T00:26:00Z</time>
      </trkpt>
      <trkpt lat="43.82828" lon="3.13138">
        <ele>506</ele>
        <time>2010-01-01T00:26:59Z</time>
      </trkpt>
      <trkpt lat="43.82791" lon="3.132">
        <ele>513</ele>
        <time>2010-01-01T00:28:30Z</time>
      </trkpt>
      <trkpt lat="43.82768" lon="3.13245">
        <ele>509</ele>
        <time>2010-01-01T00:29:32Z</time>
      </trkpt>
      <trkpt lat="43.82744" lon="3.13269">
        <ele>509</ele>
        <time>2010-01-01T00:30:18Z</time>
      </trkpt>
      <trkpt lat="43.82691" lon="3.13317">
        <ele>513</ele>
        <time>2010-01-01T00:31:56Z</time>
      </trkpt>
      <trkpt lat="43.8264" lon="3.13387">
        <ele>511</ele>
        <time>2010-01-01T00:33:49Z</time>
      </trkpt>
      <trkpt lat="43.82594" lon="3.1346">
        <ele>508</ele>
        <time>2010-01-01T00:35:38Z</time>
      </trkpt>
      <trkpt lat="43.8257" lon="3.13509">
        <ele>502</ele>
        <time>2010-01-01T00:36:45Z</time>
      </trkpt>
      <trkpt lat="43.82547" lon="3.13545">
        <ele>502</ele>
        <time>2010-01-01T00:37:39Z</time>
      </trkpt>
      <trkpt lat="43.82533" lon="3.13595">
        <ele>498</ele>
        <time>2010-01-01T00:38:39Z</time>
      </trkpt>
      <trkpt lat="43.82523" lon="3.13653">
        <ele>497</ele>
        <time>2010-01-01T00:39:47Z</time>
      </trkpt>
      <trkpt lat="43.82514" lon="3.13698">
        <ele>495</ele>
        <time>2010-01-01T00:40:39Z</time>
      </trkpt>
      <trkpt lat="43.82515" lon="3.13705">
        <ele>495</ele>
        <time>2010-01-01T00:40:48Z</time>
      </trkpt>
      <trkpt lat="43.82515" lon="3.13707">
        <ele>495</ele>
        <time>2010-01-01T00:40:50Z</time>
      </trkpt>
      <trkpt lat="43.82521" lon="3.13719">
        <ele>495</ele>
        <time>2010-01-01T00:41:07Z</time>
      </trkpt>
      <trkpt lat="43.82512" lon="3.13768">
        <ele>493</ele>
        <time>2010-01-01T00:42:04Z</time>
      </trkpt>
      <trkpt lat="43.82501" lon="3.13881">
        <ele>489</ele>
        <time>2010-01-01T00:44:12Z</time>
      </trkpt>
      <trkpt lat="43.82486" lon="3.13936">
        <ele>493</ele>
        <time>2010-01-01T00:45:19Z</time>
      </trkpt>
      <trkpt lat="43.82474" lon="3.1405">
        <ele>491</ele>
        <time>2010-01-01T00:47:29Z</time>
      </trkpt>
      <trkpt lat="43.82455" lon="3.14132">
        <ele>487</ele>
        <time>2010-01-01T00:49:05Z</time>
      </trkpt>
      <trkpt lat="43.82406" lon="3.14213">
        <ele>482</ele>
        <time>2010-01-01T00:51:06Z</time>
      </trkpt>
      <trkpt lat="43.8238" lon="3.14265">
        <ele>480</ele>
        <time>2010-01-01T00:52:16Z</time>
      </trkpt>
      <trkpt lat="43.82354" lon="3.14331">
        <ele>480</ele>
        <time>2010-01-01T00:53:42Z</time>
      </trkpt>
      <trkpt lat="43.82343" lon="3.14344">
        <ele>480</ele>
        <time>2010-01-01T00:54:04Z</time>
      </trkpt>
      <trkpt lat="43.82327" lon="3.1435">
        <ele>480</ele>
        <time>2010-01-01T00:54:30Z</time>
      </trkpt>
      <trkpt lat="43.82287" lon="3.14355">
        <ele>479</ele>
        <time>2010-01-01T00:55:32Z</time>
      </trkpt>
      <trkpt lat="43.8226" lon="3.14376">
        <ele>478</ele>
        <time>2010-01-01T00:56:20Z</time>
      </trkpt>
      <trkpt lat="43.82256" lon="3.14375">
        <ele>478</ele>
        <time>2010-01-01T00:56:27Z</time>
      </trkpt>
      <trkpt lat="43.82251" lon="3.14371">
        <ele>478</ele>
        <time>2010-01-01T00:56:36Z</time>
      </trkpt>
      <trkpt lat="43.82249" lon="3.14369">
        <ele>478</ele>
        <time>2010-01-01T00:56:41Z</time>
      </trkpt>
      <trkpt lat="43.82239" lon="3.14363">
        <ele>478</ele>
        <time>2010-01-01T00:56:58Z</time>
      </trkpt>
      <trkpt lat="43.82231" lon="3.14356">
        <ele>479</ele>
        <time>2010-01-01T00:57:11Z</time>
      </trkpt>
      <trkpt lat="43.82229" lon="3.14348">
        <ele>479</ele>
        <time>2010-01-01T00:57:22Z</time>
      </trkpt>
      <trkpt lat="43.82235" lon="3.14292">
        <ele>484</ele>
        <time>2010-01-01T00:58:26Z</time>
      </trkpt>
      <trkpt lat="43.82235" lon="3.14277">
        <ele>485</ele>
        <time>2010-01-01T00:58:42Z</time>
      </trkpt>
      <trkpt lat="43.82234" lon="3.14265">
        <ele>487</ele>
        <time>2010-01-01T00:58:56Z</time>
      </trkpt>
      <trkpt lat="43.82216" lon="3.14235">
        <ele>493</ele>
        <time>2010-01-01T00:59:40Z</time>
      </trkpt>
      <trkpt lat="43.82215" lon="3.14236">
        <ele>493</ele>
        <time>2010-01-01T00:59:43Z</time>
      </trkpt>
      <trkpt lat="43.82184" lon="3.14284">
        <ele>489</ele>
        <time>2010-01-01T01:00:55Z</time>
      </trkpt>
      <trkpt lat="43.82164" lon="3.14309">
        <ele>488</ele>
        <time>2010-01-01T01:01:38Z</time>
      </trkpt>
      <trkpt lat="43.82137" lon="3.14339">
        <ele>489</ele>
        <time>2010-01-01T01:02:32Z</time>
      </trkpt>
      <trkpt lat="43.8206" lon="3.14416">
        <ele>483</ele>
        <time>2010-01-01T01:05:00Z</time>
      </trkpt>
      <trkpt lat="43.81983" lon="3.14492">
        <ele>483</ele>
        <time>2010-01-01T01:07:27Z</time>
      </trkpt>
      <trkpt lat="43.81947" lon="3.14526">
        <ele>484</ele>
        <time>2010-01-01T01:08:35Z</time>
      </trkpt>
      <trkpt lat="43.81913" lon="3.14555">
        <ele>485</ele>
        <time>2010-01-01T01:09:39Z</time>
      </trkpt>
      <trkpt lat="43.81897" lon="3.14579">
        <ele>488</ele>
        <time>2010-01-01T01:10:16Z</time>
      </trkpt>
      <trkpt lat="43.8188" lon="3.14625">
        <ele>487</ele>
        <time>2010-01-01T01:11:14Z</time>
      </trkpt>
      <trkpt lat="43.81864" lon="3.14657">
        <ele>484</ele>
        <time>2010-01-01T01:11:57Z</time>
      </trkpt>
      <trkpt lat="43.81837" lon="3.14701">
        <ele>480</ele>
        <time>2010-01-01T01:13:03Z</time>
      </trkpt>
      <trkpt lat="43.81817" lon="3.14727">
        <ele>479</ele>
        <time>2010-01-01T01:13:46Z</time>
      </trkpt>
      <trkpt lat="43.81731" lon="3.14824">
        <ele>477</ele>
        <time>2010-01-01T01:16:39Z</time>
      </trkpt>
      <trkpt lat="43.81684" lon="3.14873">
        <ele>479</ele>
        <time>2010-01-01T01:18:11Z</time>
      </trkpt>
      <trkpt lat="43.81632" lon="3.14928">
        <ele>475</ele>
        <time>2010-01-01T01:19:53Z</time>
      </trkpt>
      <trkpt lat="43.81598" lon="3.14964">
        <ele>474</ele>
        <time>2010-01-01T01:21:00Z</time>
      </trkpt>
      <trkpt lat="43.81568" lon="3.15013">
        <ele>469</ele>
        <time>2010-01-01T01:22:13Z</time>
      </trkpt>
      <trkpt lat="43.81547" lon="3.15052">
        <ele>467</ele>
        <time>2010-01-01T01:23:08Z</time>
      </trkpt>
      <trkpt lat="43.81533" lon="3.1507">
        <ele>465</ele>
        <time>2010-01-01T01:23:37Z</time>
      </trkpt>
      <trkpt lat="43.81519" lon="3.15085">
        <ele>464</ele>
        <time>2010-01-01T01:24:05Z</time>
      </trkpt>
      <trkpt lat="43.81502" lon="3.15092">
        <ele>464</ele>
        <time>2010-01-01T01:24:33Z</time>
      </trkpt>
      <trkpt lat="43.81481" lon="3.15095">
        <ele>464</ele>
        <time>2010-01-01T01:25:05Z</time>
      </trkpt>
      <trkpt lat="43.81459" lon="3.15092">
        <ele>464</ele>
        <time>2010-01-01T01:25:40Z</time>
      </trkpt>
      <trkpt lat="43.8142" lon="3.15099">
        <ele>463</ele>
        <time>2010-01-01T01:26:41Z</time>
      </trkpt>
      <trkpt lat="43.8141" lon="3.15099">
        <ele>463</ele>
        <time>2010-01-01T01:26:57Z</time>
      </trkpt>
      <trkpt lat="43.81402" lon="3.15092">
        <ele>463</ele>
        <time>2010-01-01T01:27:11Z</time>
      </trkpt>
      <trkpt lat="43.81382" lon="3.15076">
        <ele>464</ele>
        <time>2010-01-01T01:27:48Z</time>
      </trkpt>
      <trkpt lat="43.81382" lon="3.15077">
        <ele>463</ele>
        <time>2010-01-01T01:27:50Z</time>
      </trkpt>
      <trkpt lat="43.81343" lon="3.15202">
        <ele>459</ele>
        <time>2010-01-01T01:30:22Z</time>
      </trkpt>
      <trkpt lat="43.81309" lon="3.15273">
        <ele>459</ele>
        <time>2010-01-01T01:31:59Z</time>
      </trkpt>
      <trkpt lat="43.81216" lon="3.15476">
        <ele>462</ele>
        <time>2010-01-01T01:36:30Z</time>
      </trkpt>
      <trkpt lat="43.81216" lon="3.15478">
        <ele>462</ele>
        <time>2010-01-01T01:36:32Z</time>
      </trkpt>
      <trkpt lat="43.81248" lon="3.15499">
        <ele>462</ele>
        <time>2010-01-01T01:37:28Z</time>
      </trkpt>
      <trkpt lat="43.81262" lon="3.15459">
        <ele>463</ele>
        <time>2010-01-01T01:38:18Z</time>
      </trkpt>
      <trkpt lat="43.81295" lon="3.15406">
        <ele>465</ele>
        <time>2010-01-01T01:39:37Z</time>
      </trkpt>
      <trkpt lat="43.81324" lon="3.15384">
        <ele>466</ele>
        <time>2010-01-01T01:40:29Z</time>
      </trkpt>
      <trkpt lat="43.81353" lon="3.15351">
        <ele>467</ele>
        <time>2010-01-01T01:41:27Z</time>
      </trkpt>
      <trkpt lat="43.81391" lon="3.15328">
        <ele>469</ele>
        <time>2010-01-01T01:42:32Z</time>
      </trkpt>
      <trkpt lat="43.8144" lon="3.15315">
        <ele>471</ele>
        <time>2010-01-01T01:43:50Z</time>
      </trkpt>
      <trkpt lat="43.81537" lon="3.15313">
        <ele>468</ele>
        <time>2010-01-01T01:46:21Z</time>
      </trkpt>
      <trkpt lat="43.8154" lon="3.15318">
        <ele>468</ele>
        <time>2010-01-01T01:46:29Z</time>
      </trkpt>
      <trkpt lat="43.81614" lon="3.15377">
        <ele>472</ele>
        <time>2010-01-01T01:48:42Z</time>
      </trkpt>
      <trkpt lat="43.81677" lon="3.15499">
        <ele>468</ele>
        <time>2010-01-01T01:51:31Z</time>
      </trkpt>
      <trkpt lat="43.81714" lon="3.15635">
        <ele>478</ele>
        <time>2010-01-01T01:54:16Z</time>
      </trkpt>
      <trkpt lat="43.8173" lon="3.15745">
        <ele>480</ele>
        <time>2010-01-01T01:56:21Z</time>
      </trkpt>
      <trkpt lat="43.81728" lon="3.15775">
        <ele>480</ele>
        <time>2010-01-01T01:56:56Z</time>
      </trkpt>
      <trkpt lat="43.81728" lon="3.15784">
        <ele>481</ele>
        <time>2010-01-01T01:57:06Z</time>
      </trkpt>
      <trkpt lat="43.81724" lon="3.15815">
        <ele>482</ele>
        <time>2010-01-01T01:57:42Z</time>
      </trkpt>
      <trkpt lat="43.81632" lon="3.1611">
        <ele>482</ele>
        <time>2010-01-01T02:03:43Z</time>
      </trkpt>
      <trkpt lat="43.81583" lon="3.16203">
        <ele>481</ele>
        <time>2010-01-01T02:05:53Z</time>
      </trkpt>
      <trkpt lat="43.81533" lon="3.16348">
        <ele>487</ele>
        <time>2010-01-01T02:08:54Z</time>
      </trkpt>
      <trkpt lat="43.81512" lon="3.16488">
        <ele>487</ele>
        <time>2010-01-01T02:11:36Z</time>
      </trkpt>
      <trkpt lat="43.81508" lon="3.16546">
        <ele>484</ele>
        <time>2010-01-01T02:12:42Z</time>
      </trkpt>
      <trkpt lat="43.81486" lon="3.16622">
        <ele>485</ele>
        <time>2010-01-01T02:14:14Z</time>
      </trkpt>
      <trkpt lat="43.8149" lon="3.16645">
        <ele>482</ele>
        <time>2010-01-01T02:14:42Z</time>
      </trkpt>
      <trkpt lat="43.81491" lon="3.16649">
        <ele>482</ele>
        <time>2010-01-01T02:14:46Z</time>
      </trkpt>
      <trkpt lat="43.814" lon="3.16627">
        <ele>515</ele>
        <time>2010-01-01T02:17:11Z</time>
      </trkpt>
      <trkpt lat="43.81352" lon="3.166">
        <ele>538</ele>
        <time>2010-01-01T02:18:33Z</time>
      </trkpt>
      <trkpt lat="43.81305" lon="3.16621">
        <ele>557</ele>
        <time>2010-01-01T02:19:50Z</time>
      </trkpt>
      <trkpt lat="43.81234" lon="3.16585">
        <ele>577</ele>
        <time>2010-01-01T02:21:48Z</time>
      </trkpt>
      <trkpt lat="43.81233" lon="3.16589">
        <ele>577</ele>
        <time>2010-01-01T02:21:53Z</time>
      </trkpt>
      <trkpt lat="43.81214" lon="3.16659">
        <ele>577</ele>
        <time>2010-01-01T02:23:17Z</time>
      </trkpt>
      <trkpt lat="43.81217" lon="3.16665">
        <ele>578</ele>
        <time>2010-01-01T02:23:25Z</time>
      </trkpt>
      <trkpt lat="43.81214" lon="3.16689">
        <ele>580</ele>
        <time>2010-01-01T02:23:52Z</time>
      </trkpt>
      <trkpt lat="43.81178" lon="3.16832">
        <ele>599</ele>
        <time>2010-01-01T02:26:43Z</time>
      </trkpt>
      <trkpt lat="43.81141" lon="3.16943">
        <ele>611</ele>
        <time>2010-01-01T02:29:01Z</time>
      </trkpt>
      <trkpt lat="43.81117" lon="3.16988">
        <ele>621</ele>
        <time>2010-01-01T02:30:04Z</time>
      </trkpt>
      <trkpt lat="43.8108" lon="3.17024">
        <ele>635</ele>
        <time>2010-01-01T02:31:14Z</time>
      </trkpt>
      <trkpt lat="43.80943" lon="3.1728">
        <ele>682</ele>
        <time>2010-01-01T02:37:15Z</time>
      </trkpt>
      <trkpt lat="43.80923" lon="3.173">
        <ele>687</ele>
        <time>2010-01-01T02:37:54Z</time>
      </trkpt>
      <trkpt lat="43.80921" lon="3.17302">
        <ele>688</ele>
        <time>2010-01-01T02:37:57Z</time>
      </trkpt>
      <trkpt lat="43.80881" lon="3.17352">
        <ele>686</ele>
        <time>2010-01-01T02:39:22Z</time>
      </trkpt>
      <trkpt lat="43.80844" lon="3.17434">
        <ele>689</ele>
        <time>2010-01-01T02:41:10Z</time>
      </trkpt>
      <trkpt lat="43.80804" lon="3.17612">
        <ele>686</ele>
        <time>2010-01-01T02:44:40Z</time>
      </trkpt>
      <trkpt lat="43.80763" lon="3.17772">
        <ele>682</ele>
        <time>2010-01-01T02:47:52Z</time>
      </trkpt>
      <trkpt lat="43.80766" lon="3.17772">
        <ele>683</ele>
        <time>2010-01-01T02:47:56Z</time>
      </trkpt>
      <trkpt lat="43.80766" lon="3.17822">
        <ele>684</ele>
        <time>2010-01-01T02:48:52Z</time>
      </trkpt>
      <trkpt lat="43.80792" lon="3.1791">
        <ele>686</ele>
        <time>2010-01-01T02:50:40Z</time>
      </trkpt>
      <trkpt lat="43.80813" lon="3.1802">
        <ele>685</ele>
        <time>2010-01-01T02:52:48Z</time>
      </trkpt>
      <trkpt lat="43.80797" lon="3.18133">
        <ele>684</ele>
        <time>2010-01-01T02:54:58Z</time>
      </trkpt>
      <trkpt lat="43.80747" lon="3.18238">
        <ele>685</ele>
        <time>2010-01-01T02:57:20Z</time>
      </trkpt>
      <trkpt lat="43.80714" lon="3.18375">
        <ele>683</ele>
        <time>2010-01-01T03:00:03Z</time>
      </trkpt>
      <trkpt lat="43.8073" lon="3.18466">
        <ele>683</ele>
        <time>2010-01-01T03:01:49Z</time>
      </trkpt>
      <trkpt lat="43.80674" lon="3.18694">
        <ele>692</ele>
        <time>2010-01-01T03:06:21Z</time>
      </trkpt>
      <trkpt lat="43.80718" lon="3.19085">
        <ele>706</ele>
        <time>2010-01-01T03:13:48Z</time>
      </trkpt>
      <trkpt lat="43.80756" lon="3.19335">
        <ele>705</ele>
        <time>2010-01-01T03:18:36Z</time>
      </trkpt>
      <trkpt lat="43.80757" lon="3.19447">
        <ele>705</ele>
        <time>2010-01-01T03:20:42Z</time>
      </trkpt>
      <trkpt lat="43.80725" lon="3.19538">
        <ele>706</ele>
        <time>2010-01-01T03:22:36Z</time>
      </trkpt>
      <trkpt lat="43.80706" lon="3.19554">
        <ele>707</ele>
        <time>2010-01-01T03:23:11Z</time>
      </trkpt>
      <trkpt lat="43.80708" lon="3.19563">
        <ele>707</ele>
        <time>2010-01-01T03:23:22Z</time>
      </trkpt>
      <trkpt lat="43.8065" lon="3.19753">
        <ele>708</ele>
        <time>2010-01-01T03:27:14Z</time>
      </trkpt>
      <trkpt lat="43.80584" lon="3.19834">
        <ele>709</ele>
        <time>2010-01-01T03:29:32Z</time>
      </trkpt>
      <trkpt lat="43.80547" lon="3.19847">
        <ele>707</ele>
        <time>2010-01-01T03:30:32Z</time>
      </trkpt>
      <trkpt lat="43.80426" lon="3.2009">
        <ele>696</ele>
        <time>2010-01-01T03:36:05Z</time>
      </trkpt>
      <trkpt lat="43.80318" lon="3.20532">
        <ele>691</ele>
        <time>2010-01-01T03:44:52Z</time>
      </trkpt>
      <trkpt lat="43.80214" lon="3.20795">
        <ele>671</ele>
        <time>2010-01-01T03:50:30Z</time>
      </trkpt>
      <trkpt lat="43.80283" lon="3.20955">
        <ele>666</ele>
        <time>2010-01-01T03:54:01Z</time>
      </trkpt>
      <trkpt lat="43.80304" lon="3.21119">
        <ele>663</ele>
        <time>2010-01-01T03:57:09Z</time>
      </trkpt>
      <trkpt lat="43.80265" lon="3.21127">
        <ele>664</ele>
        <time>2010-01-01T03:58:10Z</time>
      </trkpt>
      <trkpt lat="43.80239" lon="3.21152">
        <ele>663</ele>
        <time>2010-01-01T03:59:00Z</time>
      </trkpt>
      <trkpt lat="43.80217" lon="3.21205">
        <ele>665</ele>
        <time>2010-01-01T04:00:09Z</time>
      </trkpt>
      <trkpt lat="43.80216" lon="3.21207">
        <ele>665</ele>
        <time>2010-01-01T04:00:12Z</time>
      </trkpt>
      <trkpt lat="43.80157" lon="3.21273">
        <ele>672</ele>
        <time>2010-01-01T04:02:10Z</time>
      </trkpt>
      <trkpt lat="43.80151" lon="3.21275">
        <ele>673</ele>
        <time>2010-01-01T04:02:19Z</time>
      </trkpt>
      <trkpt lat="43.80138" lon="3.21273">
        <ele>675</ele>
        <time>2010-01-01T04:02:40Z</time>
      </trkpt>
      <trkpt lat="43.80072" lon="3.21218">
        <ele>680</ele>
        <time>2010-01-01T04:04:40Z</time>
      </trkpt>
      <trkpt lat="43.8007" lon="3.21216">
        <ele>680</ele>
        <time>2010-01-01T04:04:44Z</time>
      </trkpt>
      <trkpt lat="43.80028" lon="3.21205">
        <ele>680</ele>
        <time>2010-01-01T04:05:52Z</time>
      </trkpt>
      <trkpt lat="43.80011" lon="3.21212">
        <ele>681</ele>
        <time>2010-01-01T04:06:20Z</time>
      </trkpt>
      <trkpt lat="43.79981" lon="3.21259">
        <ele>681</ele>
        <time>2010-01-01T04:07:30Z</time>
      </trkpt>
      <trkpt lat="43.80008" lon="3.21295">
        <ele>681</ele>
        <time>2010-01-01T04:08:28Z</time>
      </trkpt>
      <trkpt lat="43.80026" lon="3.21339">
        <ele>682</ele>
        <time>2010-01-01T04:09:25Z</time>
      </trkpt>
    </trkseg>
  </trk>
</gpx>